createdAt,value
2023-03-23T15:58:57.845Z,24.30
2023-03-23T16:01:26.455Z,24.20
2023-03-23T16:03:53.454Z,24.10
2023-03-23T16:06:25.324Z,24.00
2023-03-23T16:08:55.149Z,23.90
2023-03-23T16:11:22.515Z,23.80
2023-03-23T16:13:49.297Z,23.70
2023-03-23T16:16:24.328Z,23.60
2023-03-23T16:18:51.100Z,23.50
2023-03-23T16:21:17.967Z,23.40
2023-03-23T16:23:46.493Z,23.30
2023-03-23T16:26:14.573Z,23.30
2023-03-23T16:28:41.910Z,23.20
2023-03-23T16:31:08.789Z,23.20
2023-03-23T16:33:35.621Z,23.20
2023-03-23T16:36:02.964Z,23.10
2023-03-23T16:38:29.774Z,23.00
2023-03-23T16:40:56.505Z,23.00
2023-03-23T16:43:23.297Z,22.90
2023-03-23T16:45:50.491Z,22.80
2023-03-23T16:48:17.342Z,22.70
2023-03-23T16:50:44.581Z,22.60
2023-03-23T16:53:11.802Z,22.50
2023-03-23T16:55:39.014Z,22.40
2023-03-23T16:58:16.492Z,22.20
2023-03-23T17:00:45.014Z,22.10
2023-03-23T17:03:13.302Z,22.00
2023-03-23T17:05:40.851Z,21.90
2023-03-23T17:08:07.790Z,21.80
2023-03-23T17:10:34.591Z,21.60
2023-03-23T17:13:01.824Z,21.40
2023-03-23T17:15:28.678Z,21.30
2023-03-23T17:17:55.575Z,21.10
2023-03-23T17:20:22.673Z,21.00
2023-03-23T17:22:49.491Z,20.90
2023-03-23T17:25:16.461Z,20.80
2023-03-23T17:27:43.309Z,20.80
2023-03-23T17:30:10.919Z,20.70
2023-03-23T17:32:37.883Z,20.60
2023-03-23T17:35:05.540Z,20.60
2023-03-23T17:37:32.642Z,20.50
2023-03-23T17:39:59.425Z,20.40
2023-03-23T17:42:26.993Z,20.30
2023-03-23T17:44:53.953Z,20.10
2023-03-23T17:47:21.002Z,20.00
2023-03-23T17:49:48.098Z,19.90
2023-03-23T17:52:15.025Z,19.80
2023-03-23T17:54:42.073Z,19.70
2023-03-23T17:57:09.154Z,19.70
2023-03-23T17:59:36.360Z,19.60
2023-03-23T18:02:03.492Z,19.60
2023-03-23T18:04:30.675Z,19.50
2023-03-23T18:06:57.846Z,19.40
2023-03-23T18:09:25.248Z,19.20
2023-03-23T18:11:52.162Z,19.10
2023-03-23T18:14:19.108Z,19.00
2023-03-23T18:16:46.239Z,18.90
2023-03-23T18:19:13.101Z,18.90
2023-03-23T18:21:39.904Z,18.80
2023-03-23T18:24:07.956Z,18.70
2023-03-23T18:26:34.853Z,18.70
2023-03-23T18:29:01.726Z,18.60
2023-03-23T18:31:28.865Z,18.50
2023-03-23T18:33:55.785Z,18.30
2023-03-23T18:36:24.980Z,18.20
2023-03-23T18:38:53.931Z,18.10
2023-03-23T18:41:20.880Z,18.00
2023-03-23T18:43:47.905Z,17.90
2023-03-23T18:46:14.879Z,17.80
2023-03-23T18:48:41.708Z,17.80
2023-03-23T18:51:09.547Z,17.80
2023-03-23T18:53:36.310Z,17.80
2023-03-23T18:56:13.920Z,17.80
2023-03-23T18:58:41.009Z,17.70
2023-03-23T19:01:10.456Z,17.70
2023-03-23T19:03:37.731Z,17.60
2023-03-23T19:06:04.900Z,17.50
2023-03-23T19:08:31.855Z,17.40
2023-03-23T19:11:01.005Z,17.40
2023-03-23T19:13:31.566Z,17.20
2023-03-23T19:15:58.466Z,17.20
2023-03-23T19:18:25.698Z,17.10
2023-03-23T19:21:13.727Z,17.10
2023-03-23T19:23:41.460Z,17.00
2023-03-23T19:26:08.403Z,17.00
2023-03-23T19:31:05.548Z,16.90
2023-03-23T19:33:32.335Z,16.90
2023-03-23T19:36:09.087Z,16.80
2023-03-23T19:38:38.394Z,16.70
2023-03-23T19:41:06.392Z,16.70
2023-03-23T19:43:33.785Z,16.60
2023-03-23T19:46:00.833Z,16.60
2023-03-23T19:48:28.792Z,16.50
2023-03-23T19:50:56.319Z,16.40
2023-03-23T19:53:23.542Z,16.40
2023-03-23T19:55:50.499Z,16.40
2023-03-23T19:58:17.539Z,16.30
2023-03-23T20:00:45.259Z,16.30
2023-03-23T20:03:12.655Z,16.30
2023-03-23T20:05:40.729Z,16.20
2023-03-23T20:08:09.120Z,16.10
2023-03-23T20:10:36.386Z,16.00
2023-03-23T20:13:04.378Z,16.00
2023-03-23T20:15:32.027Z,16.00
2023-03-23T20:17:59.198Z,16.00
2023-03-23T20:20:26.509Z,16.00
2023-03-23T20:22:54.511Z,16.00
2023-03-23T20:25:23.426Z,15.90
2023-03-23T20:27:50.645Z,15.90
2023-03-23T20:30:18.793Z,15.70
2023-03-23T20:32:46.604Z,15.60
2023-03-23T20:35:14.848Z,15.50
2023-03-23T20:37:42.139Z,15.30
2023-03-23T20:40:11.668Z,15.30
2023-03-23T20:42:38.887Z,15.20
2023-03-23T20:45:06.306Z,15.10
2023-03-23T20:47:33.201Z,15.10
2023-03-23T20:50:00.210Z,15.10
2023-03-23T20:52:27.049Z,15.10
2023-03-23T20:54:54.886Z,15.10
2023-03-23T20:57:22.465Z,15.10
2023-03-23T20:59:50.809Z,15.10
2023-03-23T21:02:18.319Z,15.10
2023-03-23T21:04:45.283Z,15.00
2023-03-23T21:07:13.142Z,15.00
2023-03-23T21:09:41.046Z,14.90
2023-03-23T21:12:09.273Z,14.80
2023-03-23T21:14:37.278Z,14.70
2023-03-23T21:17:04.855Z,14.60
2023-03-23T21:19:32.540Z,14.60
2023-03-23T21:21:59.815Z,14.60
2023-03-23T21:24:28.384Z,14.50
2023-03-23T21:26:56.756Z,14.60
2023-03-23T21:29:24.412Z,14.60
2023-03-23T21:31:57.780Z,14.60
2023-03-23T21:34:32.033Z,14.70
2023-03-23T21:36:58.991Z,14.70
2023-03-23T21:39:26.342Z,14.60
2023-03-23T21:41:53.175Z,14.60
2023-03-23T21:44:20.144Z,14.50
2023-03-23T21:46:46.944Z,14.40
2023-03-23T21:49:14.404Z,14.30
2023-03-23T21:51:41.714Z,14.20
2023-03-23T21:54:09.206Z,14.20
2023-03-23T21:56:36.843Z,14.20
2023-03-23T21:59:04.707Z,14.20
2023-03-23T22:01:31.656Z,14.20
2023-03-23T22:03:58.639Z,14.20
2023-03-23T22:06:28.559Z,14.10
2023-03-23T22:08:55.974Z,14.20
2023-03-23T22:11:27.072Z,14.10
2023-03-23T22:13:54.689Z,14.00
2023-03-23T22:16:21.847Z,14.10
2023-03-23T22:18:49.408Z,14.00
2023-03-23T22:21:16.814Z,14.10
2023-03-23T22:23:44.352Z,14.00
2023-03-23T22:26:12.115Z,13.90
2023-03-23T22:28:39.192Z,13.90
2023-03-23T22:31:18.651Z,13.80
2023-03-23T22:33:46.156Z,13.70
2023-03-23T22:36:13.152Z,13.70
2023-03-23T22:38:41.530Z,13.60
2023-03-23T22:41:08.725Z,13.60
2023-03-23T22:43:36.055Z,13.50
2023-03-23T22:46:03.736Z,13.50
2023-03-23T22:48:30.973Z,13.30
2023-03-23T22:50:58.495Z,13.30
2023-03-23T22:53:25.957Z,13.30
2023-03-23T22:55:54.535Z,13.30
2023-03-23T22:58:21.367Z,13.30
2023-03-23T23:00:49.645Z,13.30
2023-03-23T23:03:16.755Z,13.30
2023-03-23T23:05:45.191Z,13.30
2023-03-23T23:08:13.515Z,13.20
2023-03-23T23:10:42.211Z,13.10
2023-03-23T23:13:09.351Z,13.20
2023-03-23T23:15:36.858Z,13.10
2023-03-23T23:18:04.958Z,13.10
2023-03-23T23:20:33.286Z,13.10
2023-03-23T23:23:01.312Z,13.10
2023-03-23T23:25:28.989Z,13.00
2023-03-23T23:27:56.364Z,13.00
2023-03-23T23:30:23.204Z,12.90
2023-03-23T23:32:52.270Z,12.80
2023-03-23T23:35:20.288Z,12.70
2023-03-23T23:37:47.644Z,12.70
2023-03-23T23:40:15.374Z,12.60
2023-03-23T23:42:43.292Z,12.60
2023-03-23T23:45:13.236Z,12.50
2023-03-23T23:47:40.550Z,12.50
2023-03-23T23:50:08.621Z,12.50
2023-03-23T23:52:36.385Z,12.50
2023-03-23T23:55:04.288Z,12.40
2023-03-23T23:57:31.426Z,12.50
2023-03-23T23:59:58.278Z,12.50
